Time;durP1;ratioP1;P1;durP2;ratioP2;P2;SDS_P1;SDS_P2;PMS_P1;PMS_P2;Temp;Humidity;BMP_temperature;BMP_pressure;BME280_temperature;BME280_humidity;BME280_pressure;Samples;Min_cycle;Max_cycle;Signal;HPM_P1;HPM_P2
2024/02/06 00:01:01;;;;;;;15.02;3.15;;;;;;;-141.50;100.00;63355.56;5103189;28;20052;-80
2024/02/06 00:03:32;;;;;;;13.02;3.15;;;;;;;-141.50;100.00;63355.56;5107490;28;20047;-79
2024/02/06 00:05:59;;;;;;;16.90;3.15;;;;;;;-141.50;100.00;63355.56;5109015;28;20051;-80
2024/02/06 00:08:26;;;;;;;14.93;3.53;;;;;;;-141.50;100.00;63355.56;5092962;28;20051;-80
2024/02/06 00:10:52;;;;;;;6.97;2.88;;;;;;;-141.50;100.00;63355.56;5112333;28;20051;-80
2024/02/06 00:13:19;;;;;;;13.25;3.40;;;;;;;-141.50;100.00;63355.56;5088781;28;20525;-79
2024/02/06 00:15:46;;;;;;;9.23;3.20;;;;;;;-141.50;100.00;63355.56;5107332;28;20496;-81
2024/02/06 00:18:13;;;;;;;11.60;3.22;;;;;;;-141.50;100.00;63355.56;5091962;28;20562;-80
2024/02/06 00:20:40;;;;;;;13.75;2.85;;;;;;;-141.50;100.00;63355.56;5110583;28;20081;-81
2024/02/06 00:23:06;;;;;;;9.27;3.20;;;;;;;-141.50;100.00;63355.56;5090921;28;20154;-81
2024/02/06 00:25:33;;;;;;;9.65;3.30;;;;;;;-141.50;100.00;63355.56;5110394;28;20051;-79
2024/02/06 00:28:00;;;;;;;25.33;3.60;;;;;;;-141.50;100.00;63355.56;5113167;28;20556;-79
2024/02/06 00:30:27;;;;;;;11.43;3.30;;;;;;;-141.50;100.00;63355.56;5087876;28;20043;-80
2024/02/06 00:32:54;;;;;;;14.20;3.45;;;;;;;-141.50;100.00;63355.56;5093394;28;20139;-79
2024/02/06 00:35:21;;;;;;;17.77;3.30;;;;;;;-141.50;100.00;63355.56;5093748;28;20055;-81
2024/02/06 00:37:48;;;;;;;16.48;2.90;;;;;;;-141.50;100.00;63355.56;5110827;28;20095;-79
2024/02/06 00:40:15;;;;;;;8.43;2.97;;;;;;;-141.50;100.00;63355.56;5076882;28;20136;-79
2024/02/06 00:42:42;;;;;;;16.05;2.75;;;;;;;-141.50;100.00;63355.56;5089423;28;20131;-79
2024/02/06 00:45:09;;;;;;;14.52;3.47;;;;;;;-141.50;100.00;63355.56;5089465;28;20056;-79
2024/02/06 00:47:35;;;;;;;8.90;3.15;;;;;;;-141.50;100.00;63355.56;5114566;28;20058;-78
2024/02/06 00:50:04;;;;;;;11.52;3.58;;;;;;;-141.50;100.00;63355.56;5110803;28;20059;-79
2024/02/06 00:52:31;;;;;;;21.02;3.17;;;;;;;-141.50;100.00;63355.56;5097708;28;20051;-81
2024/02/06 00:54:58;;;;;;;18.77;3.15;;;;;;;-141.50;100.00;63355.56;5099820;28;20059;-79
2024/02/06 00:57:28;;;;;;;13.70;3.40;;;;;;;-141.50;100.00;63355.56;5091549;28;20103;-82
2024/02/06 00:59:55;;;;;;;10.70;3.08;;;;;;;-141.50;100.00;63355.56;5109159;28;20506;-80
2024/02/06 01:02:23;;;;;;;12.68;3.28;;;;;;;-141.50;100.00;63355.56;5108380;28;20323;-81
2024/02/06 01:04:49;;;;;;;11.50;3.00;;;;;;;-141.50;100.00;63355.56;5109325;28;20055;-78
2024/02/06 01:07:18;;;;;;;12.90;3.28;;;;;;;-141.50;100.00;63355.56;5109456;28;20075;-79
2024/02/06 01:09:45;;;;;;;9.00;2.90;;;;;;;-141.50;100.00;63355.56;5109261;28;20040;-80
2024/02/06 01:12:12;;;;;;;17.45;3.63;;;;;;;-141.50;100.00;63355.56;5087077;28;20131;-78
2024/02/06 01:14:39;;;;;;;11.55;3.50;;;;;;;-141.50;100.00;63355.56;5087203;28;20036;-78
2024/02/06 01:17:05;;;;;;;8.20;3.13;;;;;;;-141.50;100.00;63355.56;5091194;28;20134;-81
2024/02/06 01:19:32;;;;;;;11.30;3.35;;;;;;;-141.50;100.00;63355.56;5092459;27;20115;-80
2024/02/06 01:21:59;;;;;;;13.45;3.30;;;;;;;-141.50;100.00;63355.56;5095503;28;20059;-80
2024/02/06 01:24:26;;;;;;;14.52;3.42;;;;;;;-141.50;100.00;63355.56;5094768;28;20138;-79
2024/02/06 01:26:53;;;;;;;13.30;3.15;;;;;;;-141.50;100.00;63355.56;5088653;28;20680;-79
2024/02/06 01:29:20;;;;;;;12.23;3.20;;;;;;;-141.50;100.00;63355.56;5105588;28;20060;-80
2024/02/06 01:31:47;;;;;;;9.93;2.90;;;;;;;-141.50;100.00;63355.56;5089954;28;20043;-78
2024/02/06 01:34:16;;;;;;;13.90;3.35;;;;;;;-141.50;100.00;63355.56;5090381;28;20052;-80
2024/02/06 01:36:43;;;;;;;14.75;3.83;;;;;;;-141.50;100.00;63355.56;5074122;28;20040;-78
2024/02/06 01:39:11;;;;;;;12.98;3.38;;;;;;;-141.50;100.00;63355.56;5089432;28;20048;-79
2024/02/06 01:41:38;;;;;;;12.75;3.30;;;;;;;-141.50;100.00;63355.56;5112217;28;20096;-80
2024/02/06 01:44:05;;;;;;;14.07;3.33;;;;;;;-141.50;100.00;63355.56;5112728;28;20039;-78
2024/02/06 01:46:33;;;;;;;6.50;2.50;;;;;;;-141.50;100.00;63355.56;5111764;28;20066;-82
2024/02/06 01:49:02;;;;;;;17.73;3.35;;;;;;;-141.50;100.00;63355.56;5118949;28;20067;-79
2024/02/06 01:51:33;;;;;;;12.75;2.90;;;;;;;-141.50;100.00;63355.56;5068475;28;20044;-80
2024/02/06 01:54:04;;;;;;;17.67;3.25;;;;;;;-141.50;100.00;63355.56;5088156;28;20059;-80
2024/02/06 01:56:32;;;;;;;11.65;3.70;;;;;;;-141.50;100.00;63355.56;5108044;28;20039;-80
2024/02/06 01:58:59;;;;;;;11.02;3.42;;;;;;;-141.50;100.00;63355.56;5107220;28;20056;-81
2024/02/06 02:01:29;;;;;;;17.85;3.55;;;;;;;-141.50;100.00;63355.56;5107323;28;20043;-80
2024/02/06 02:03:57;;;;;;;12.32;3.15;;;;;;;-141.50;100.00;63355.56;5088781;28;20299;-80
2024/02/06 02:06:26;;;;;;;15.60;3.60;;;;;;;-141.50;100.00;63355.56;5089595;28;20066;-79
2024/02/06 02:08:53;;;;;;;14.25;3.22;;;;;;;-141.50;100.00;63355.56;5093151;28;20050;-80
2024/02/06 02:11:19;;;;;;;13.45;3.15;;;;;;;-141.50;100.00;63355.56;5096013;28;20115;-83
2024/02/06 02:13:46;;;;;;;12.13;3.58;;;;;;;-141.50;100.00;63355.56;5113177;28;20122;-80
2024/02/06 02:16:15;;;;;;;17.15;3.10;;;;;;;-141.50;100.00;63355.56;5113271;28;20047;-81
2024/02/06 02:18:42;;;;;;;17.58;4.05;;;;;;;-141.50;100.00;63355.56;5110620;28;20035;-79
2024/02/06 02:21:12;;;;;;;14.35;3.47;;;;;;;-141.50;100.00;63355.56;5087241;28;20054;-81
2024/02/06 02:23:41;;;;;;;13.25;3.83;;;;;;;-141.50;100.00;63355.56;5103945;28;20096;-79
2024/02/06 02:26:09;;;;;;;12.77;3.83;;;;;;;-141.50;100.00;63355.56;5090946;28;20138;-81
2024/02/06 02:28:43;;;;;;;15.18;3.15;;;;;;;-141.50;100.00;63355.56;5109219;28;20143;-78
2024/02/06 02:31:12;;;;;;;12.57;3.17;;;;;;;-141.50;100.00;63355.56;5098195;28;20065;-78
2024/02/06 02:33:39;;;;;;;16.85;3.78;;;;;;;-141.50;100.00;63355.56;5107014;28;20075;-79
2024/02/06 02:36:07;;;;;;;14.82;3.33;;;;;;;-141.50;100.00;63355.56;5106706;28;20035;-77
2024/02/06 02:38:35;;;;;;;20.33;3.92;;;;;;;-141.50;100.00;63355.56;5089281;28;20563;-81
2024/02/06 02:41:05;;;;;;;12.57;3.30;;;;;;;-141.50;100.00;63355.56;5112075;28;20054;-77
2024/02/06 02:43:35;;;;;;;12.20;3.42;;;;;;;-141.50;100.00;63355.56;5089945;28;20047;-81
2024/02/06 02:46:04;;;;;;;13.73;3.08;;;;;;;-141.50;100.00;63355.56;5120060;28;20059;-78
2024/02/06 02:48:32;;;;;;;13.13;3.17;;;;;;;-141.50;100.00;63355.56;5114082;28;20455;-79
2024/02/06 02:50:59;;;;;;;12.52;3.60;;;;;;;-141.50;100.00;63355.56;5111557;27;20031;-79
2024/02/06 02:53:26;;;;;;;13.68;3.60;;;;;;;-141.50;100.00;63355.56;5093897;28;20082;-79
2024/02/06 02:55:57;;;;;;;17.88;3.53;;;;;;;-141.50;100.00;63355.56;5112883;28;20062;-79
2024/02/06 02:58:24;;;;;;;12.98;4.03;;;;;;;-141.50;100.00;63355.56;5114084;28;20062;-80
2024/02/06 03:00:51;;;;;;;16.33;3.92;;;;;;;-141.50;100.00;63355.56;5116370;28;20525;-80
2024/02/06 03:03:18;;;;;;;16.85;4.30;;;;;;;-141.50;100.00;63355.56;5114391;28;20135;-77
2024/02/06 03:05:44;;;;;;;16.95;4.13;;;;;;;-141.50;100.00;63355.56;5085912;28;20051;-77
2024/02/06 03:08:11;;;;;;;16.98;5.03;;;;;;;-141.50;100.00;63355.56;5092918;28;20570;-78
2024/02/06 03:10:41;;;;;;;14.15;4.00;;;;;;;-141.50;100.00;63355.56;5114075;28;20646;-80
2024/02/06 03:13:08;;;;;;;17.58;4.45;;;;;;;-141.50;100.00;63355.56;5094274;28;20059;-79
2024/02/06 03:15:35;;;;;;;18.52;3.78;;;;;;;-141.50;100.00;63355.56;5095367;28;20055;-78
2024/02/06 03:18:02;;;;;;;16.65;3.88;;;;;;;-141.50;100.00;63355.56;5105334;28;20464;-80
2024/02/06 03:20:29;;;;;;;9.50;3.75;;;;;;;-141.50;100.00;63355.56;5112650;28;20053;-78
2024/02/06 03:22:56;;;;;;;9.90;3.90;;;;;;;-141.50;100.00;63355.56;5111097;28;20051;-80
2024/02/06 03:25:23;;;;;;;19.27;4.28;;;;;;;-141.50;100.00;63355.56;5094144;28;20052;-78
2024/02/06 03:27:50;;;;;;;15.30;4.32;;;;;;;-141.50;100.00;63355.56;5111029;28;20046;-81
2024/02/06 03:30:18;;;;;;;23.73;4.43;;;;;;;-141.50;100.00;63355.56;5111661;28;21015;-78
2024/02/06 03:32:50;;;;;;;14.30;4.63;;;;;;;-141.50;100.00;63355.56;5104737;28;20125;-78
2024/02/06 03:35:17;;;;;;;17.65;4.53;;;;;;;-141.50;100.00;63355.56;5073645;28;20522;-78
2024/02/06 03:37:44;;;;;;;13.15;4.18;;;;;;;-141.50;100.00;63355.56;5104398;28;20048;-78
2024/02/06 03:40:12;;;;;;;16.95;4.38;;;;;;;-141.50;100.00;63355.56;5103922;28;20046;-78
2024/02/06 03:42:39;;;;;;;15.65;4.40;;;;;;;-141.50;100.00;63355.56;5116876;28;20055;-77
2024/02/06 03:45:06;;;;;;;14.63;4.60;;;;;;;-141.50;100.00;63355.56;5110280;28;20524;-78
2024/02/06 03:47:33;;;;;;;17.90;4.35;;;;;;;-141.50;100.00;63355.56;5075345;28;20039;-79
2024/02/06 03:50:00;;;;;;;15.15;4.20;;;;;;;-141.50;100.00;63355.56;5110762;28;20104;-77
2024/02/06 03:52:26;;;;;;;13.93;4.05;;;;;;;-141.50;100.00;63355.56;5090826;28;20032;-81
2024/02/06 03:54:53;;;;;;;15.75;4.28;;;;;;;-141.50;100.00;63355.56;5109430;28;20838;-80
2024/02/06 03:57:20;;;;;;;16.15;4.00;;;;;;;-141.50;100.00;63355.56;5110975;28;20073;-80
2024/02/06 03:59:47;;;;;;;18.42;4.97;;;;;;;-141.50;100.00;63355.56;5087823;28;20085;-78
2024/02/06 04:02:17;;;;;;;15.98;4.40;;;;;;;-141.50;100.00;63355.56;5092118;28;20047;-80
2024/02/06 04:04:44;;;;;;;12.20;3.47;;;;;;;-141.50;100.00;63355.56;5092677;28;20040;-80
2024/02/06 04:07:11;;;;;;;16.13;4.50;;;;;;;-141.50;100.00;63355.56;5104969;28;20062;-81
2024/02/06 04:09:40;;;;;;;12.05;4.40;;;;;;;-141.50;100.00;63355.56;5095826;28;20470;-79
2024/02/06 04:12:07;;;;;;;14.95;3.88;;;;;;;-141.50;100.00;63355.56;5112243;28;20043;-78
2024/02/06 04:14:34;;;;;;;11.48;3.90;;;;;;;-141.50;100.00;63355.56;5106241;28;20043;-78
2024/02/06 04:17:00;;;;;;;17.73;4.43;;;;;;;-141.50;100.00;63355.56;5073461;28;20044;-78
2024/02/06 04:19:27;;;;;;;17.02;4.22;;;;;;;-141.50;100.00;63355.56;5093244;28;20050;-78
2024/02/06 04:21:54;;;;;;;17.08;4.50;;;;;;;-141.50;100.00;63355.56;5112584;28;20044;-78
2024/02/06 04:24:21;;;;;;;21.15;3.97;;;;;;;-141.50;100.00;63355.56;5092332;28;20127;-79
2024/02/06 04:26:48;;;;;;;16.77;4.53;;;;;;;-141.50;100.00;63355.56;5111874;28;20134;-78
2024/02/06 04:29:15;;;;;;;18.15;3.88;;;;;;;-141.50;100.00;63355.56;5091714;28;20131;-80
2024/02/06 04:31:42;;;;;;;15.88;4.72;;;;;;;-141.50;100.00;63355.56;5091434;28;20039;-80
2024/02/06 04:34:09;;;;;;;18.17;4.60;;;;;;;-141.50;100.00;63355.56;5107258;28;20039;-78
2024/02/06 04:36:36;;;;;;;14.85;4.65;;;;;;;-141.50;100.00;63355.56;5091586;28;20043;-79
2024/02/06 04:39:05;;;;;;;15.23;3.75;;;;;;;-141.50;100.00;63355.56;5109210;28;20051;-79
2024/02/06 04:41:35;;;;;;;18.30;4.50;;;;;;;-141.50;100.00;63355.56;5118778;28;20055;-78
2024/02/06 04:44:02;;;;;;;15.98;4.05;;;;;;;-141.50;100.00;63355.56;5106724;28;20115;-78
2024/02/06 04:46:28;;;;;;;14.57;3.90;;;;;;;-141.50;100.00;63355.56;5108878;28;20106;-79
2024/02/06 04:48:55;;;;;;;16.90;4.10;;;;;;;-141.50;100.00;63355.56;5089464;28;20405;-80
2024/02/06 04:51:22;;;;;;;17.05;3.95;;;;;;;-141.50;100.00;63355.56;5107569;28;20143;-77
2024/02/06 04:53:49;;;;;;;11.70;3.50;;;;;;;-141.50;100.00;63355.56;5108413;28;20039;-78
2024/02/06 04:56:22;;;;;;;18.38;4.25;;;;;;;-141.50;100.00;63355.56;5105279;28;20039;-78
2024/02/06 04:58:49;;;;;;;12.70;4.50;;;;;;;-141.50;100.00;63355.56;5107349;28;20452;-79
2024/02/06 05:01:20;;;;;;;12.60;3.80;;;;;;;-141.50;100.00;63355.56;5091017;28;20051;-80
2024/02/06 05:03:47;;;;;;;12.57;3.42;;;;;;;-141.50;100.00;63355.56;5108092;28;20494;-79
2024/02/06 05:06:14;;;;;;;12.55;4.20;;;;;;;-141.50;100.00;63355.56;5106822;28;20047;-81
2024/02/06 05:08:41;;;;;;;17.00;4.32;;;;;;;-141.50;100.00;63355.56;5106549;28;20050;-80
2024/02/06 05:11:08;;;;;;;17.05;4.15;;;;;;;-141.50;100.00;63355.56;5106912;28;20044;-79
2024/02/06 05:13:34;;;;;;;11.80;3.42;;;;;;;-141.50;100.00;63355.56;5089194;28;20097;-79
2024/02/06 05:16:02;;;;;;;14.10;3.88;;;;;;;-141.50;100.00;63355.56;5090632;28;20074;-80
2024/02/06 05:18:29;;;;;;;10.02;3.33;;;;;;;-141.50;100.00;63355.56;5111051;28;20651;-81
2024/02/06 05:20:58;;;;;;;13.63;3.58;;;;;;;-141.50;100.00;63355.56;5092873;28;20036;-80
2024/02/06 05:23:25;;;;;;;17.75;3.70;;;;;;;-141.50;100.00;63355.56;5110503;28;20062;-77
2024/02/06 05:25:51;;;;;;;10.68;3.47;;;;;;;-141.50;100.00;63355.56;5090867;28;20449;-78
2024/02/06 05:28:19;;;;;;;10.70;3.58;;;;;;;-141.50;100.00;63355.56;5109931;28;20035;-79
2024/02/06 05:30:46;;;;;;;11.48;3.33;;;;;;;-141.50;100.00;63355.56;5111297;28;20040;-78
2024/02/06 05:33:13;;;;;;;18.35;4.13;;;;;;;-141.50;100.00;63355.56;5087649;28;20050;-83
2024/02/06 05:35:40;;;;;;;13.63;3.72;;;;;;;-141.50;100.00;63355.56;5107081;28;20039;-83
2024/02/06 05:38:06;;;;;;;16.92;4.70;;;;;;;-141.50;100.00;63355.56;5087785;28;20047;-82
2024/02/06 05:40:33;;;;;;;16.35;3.65;;;;;;;-141.50;100.00;63355.56;5108955;28;20047;-81
2024/02/06 05:43:00;;;;;;;9.73;3.50;;;;;;;-141.50;100.00;63355.56;5105898;28;20614;-81
2024/02/06 05:45:27;;;;;;;13.27;3.58;;;;;;;-141.50;100.00;63355.56;5083627;28;20119;-81
2024/02/06 05:47:55;;;;;;;9.15;3.47;;;;;;;-141.50;100.00;63355.56;5105021;28;20092;-82
2024/02/06 05:50:24;;;;;;;10.32;3.50;;;;;;;-141.50;100.00;63355.56;5087741;28;20429;-82
2024/02/06 05:52:51;;;;;;;10.48;3.03;;;;;;;-141.50;100.00;63355.56;5088474;28;20048;-82
2024/02/06 05:55:18;;;;;;;17.55;3.40;;;;;;;-141.50;100.00;63355.56;5086211;28;20051;-77
2024/02/06 05:57:45;;;;;;;16.38;3.15;;;;;;;-141.50;100.00;63355.56;5105967;28;20043;-80
2024/02/06 06:00:13;;;;;;;12.90;3.58;;;;;;;-141.50;100.00;63355.56;5107171;28;20050;-78
2024/02/06 06:02:40;;;;;;;14.65;3.22;;;;;;;-141.50;100.00;63355.56;5113289;28;20039;-80
2024/02/06 06:05:09;;;;;;;9.43;3.10;;;;;;;-141.50;100.00;63355.56;5092633;28;20051;-80
2024/02/06 06:07:37;;;;;;;6.88;3.20;;;;;;;-141.50;100.00;63355.56;5098244;28;20055;-78
2024/02/06 06:10:04;;;;;;;9.77;3.30;;;;;;;-141.50;100.00;63355.56;5119371;28;20044;-79
2024/02/06 06:12:31;;;;;;;12.45;2.80;;;;;;;-141.50;100.00;63355.56;5112530;28;20039;-79
2024/02/06 06:14:58;;;;;;;10.77;3.20;;;;;;;-141.50;100.00;63355.56;5092246;28;20075;-80
2024/02/06 06:17:25;;;;;;;13.75;2.78;;;;;;;-141.50;100.00;63355.56;5093008;28;20520;-80
2024/02/06 06:19:51;;;;;;;6.93;2.92;;;;;;;-141.50;100.00;63355.56;5110865;28;20043;-80
2024/02/06 06:22:18;;;;;;;9.38;2.95;;;;;;;-141.50;100.00;63355.56;5110592;28;20040;-80
2024/02/06 06:24:45;;;;;;;11.48;3.00;;;;;;;-141.50;100.00;63355.56;5110173;28;20050;-79
2024/02/06 06:27:12;;;;;;;7.70;2.72;;;;;;;-141.50;100.00;63355.56;5108430;28;20105;-79
2024/02/06 06:29:38;;;;;;;8.85;2.90;;;;;;;-141.50;100.00;63355.56;5092311;28;20047;-80
2024/02/06 06:32:05;;;;;;;10.93;2.78;;;;;;;-141.50;100.00;63355.56;5113738;28;20049;-81
2024/02/06 06:34:32;;;;;;;6.47;2.58;;;;;;;-141.50;100.00;63355.56;5114972;28;20141;-79
2024/02/06 06:36:59;;;;;;;8.02;2.85;;;;;;;-141.50;100.00;63355.56;5120122;28;20051;-79
2024/02/06 06:39:25;;;;;;;9.52;2.80;;;;;;;-141.50;100.00;63355.56;5111745;28;20051;-79
2024/02/06 06:41:52;;;;;;;9.38;2.30;;;;;;;-141.50;100.00;63355.56;5085493;28;20054;-78
2024/02/06 06:44:19;;;;;;;8.25;2.47;;;;;;;-141.50;100.00;63355.56;5112791;28;20064;-80
2024/02/06 06:46:47;;;;;;;8.13;2.55;;;;;;;-141.50;100.00;63355.56;5115193;28;20044;-80
2024/02/06 06:49:14;;;;;;;8.60;2.20;;;;;;;-141.50;100.00;63355.56;5105116;28;20250;-78
2024/02/06 06:51:43;;;;;;;5.18;2.15;;;;;;;-141.50;100.00;63355.56;5103712;28;20097;-79
2024/02/06 06:54:10;;;;;;;6.25;2.25;;;;;;;-141.50;100.00;63355.56;5109996;28;20047;-79
2024/02/06 06:56:37;;;;;;;6.00;2.17;;;;;;;-141.50;100.00;63355.56;5115907;28;20040;-79
2024/02/06 06:59:04;;;;;;;8.45;2.08;;;;;;;-141.50;100.00;63355.56;5078765;28;20055;-80
2024/02/06 07:01:30;;;;;;;4.55;2.08;;;;;;;-141.50;100.00;63355.56;5092940;28;20446;-79
2024/02/06 07:03:57;;;;;;;10.25;2.03;;;;;;;-141.50;100.00;63355.56;5086362;28;20083;-78
2024/02/06 07:06:24;;;;;;;8.30;2.00;;;;;;;-141.50;100.00;63355.56;5115956;28;20055;-81
2024/02/06 07:08:51;;;;;;;8.15;2.20;;;;;;;-141.50;100.00;63355.56;5113949;28;20266;-79
2024/02/06 07:11:18;;;;;;;9.20;2.58;;;;;;;-141.50;100.00;63355.56;5113579;28;20401;-80
2024/02/06 07:13:44;;;;;;;8.48;2.35;;;;;;;-141.50;100.00;63355.56;5099087;28;20063;-77
2024/02/06 07:16:14;;;;;;;6.20;1.95;;;;;;;-141.50;100.00;63355.56;5114012;28;20059;-78
2024/02/06 07:18:41;;;;;;;9.25;1.95;;;;;;;-141.50;100.00;63355.56;5098525;28;20061;-81
2024/02/06 07:21:08;;;;;;;7.22;1.90;;;;;;;-141.50;100.00;63355.56;5088078;28;20146;-79
2024/02/06 07:23:34;;;;;;;4.63;1.83;;;;;;;-141.50;100.00;63355.56;5073312;28;20425;-78
2024/02/06 07:26:01;;;;;;;9.20;2.10;;;;;;;-141.50;100.00;63355.56;5112310;28;20075;-80
2024/02/06 07:28:32;;;;;;;7.20;2.03;;;;;;;-141.50;100.00;63355.56;5087939;28;20576;-79
2024/02/06 07:30:59;;;;;;;4.53;1.83;;;;;;;-141.50;100.00;63355.56;5092272;28;20056;-79
2024/02/06 07:33:26;;;;;;;4.22;1.80;;;;;;;-141.50;100.00;63355.56;5112209;27;20585;-79
2024/02/06 07:35:53;;;;;;;5.10;1.60;;;;;;;-141.50;100.00;63355.56;5101283;28;20063;-79
2024/02/06 07:38:19;;;;;;;6.18;2.00;;;;;;;-141.50;100.00;63355.56;5108114;27;20791;-78
2024/02/06 07:40:46;;;;;;;5.95;1.92;;;;;;;-141.50;100.00;63355.56;5095947;27;20052;-78
2024/02/06 07:43:13;;;;;;;5.63;1.80;;;;;;;-141.50;100.00;63355.56;5117327;27;20077;-79
2024/02/06 07:45:46;;;;;;;4.90;1.67;;;;;;;-141.50;100.00;63355.56;5111714;28;20123;-79
2024/02/06 07:48:13;;;;;;;4.97;1.50;;;;;;;-141.50;100.00;63355.56;5102044;27;20072;-78
2024/02/06 07:50:40;;;;;;;2.78;1.40;;;;;;;-141.50;100.00;63355.56;5097914;28;20066;-78
2024/02/06 07:53:06;;;;;;;5.43;1.30;;;;;;;-141.50;100.00;63355.56;5111187;27;20115;-77
2024/02/06 07:55:34;;;;;;;6.57;1.63;;;;;;;-141.50;100.00;63355.56;5114838;28;20085;-80
2024/02/06 07:58:02;;;;;;;5.13;1.67;;;;;;;-141.50;100.00;63355.56;5112421;27;20560;-76
2024/02/06 08:00:29;;;;;;;7.90;1.50;;;;;;;-141.50;100.00;63355.56;5091418;28;20117;-79
2024/02/06 08:02:56;;;;;;;7.82;1.75;;;;;;;-141.50;100.00;63355.56;5099110;27;20056;-80
2024/02/06 08:05:24;;;;;;;4.45;1.42;;;;;;;-141.50;100.00;63355.56;5115834;27;20048;-79
2024/02/06 08:07:50;;;;;;;3.75;1.50;;;;;;;-141.50;100.00;63355.56;5116425;28;20059;-78
2024/02/06 08:10:20;;;;;;;7.32;1.20;;;;;;;-141.50;100.00;63355.56;5113788;28;20047;-78
2024/02/06 08:12:47;;;;;;;9.25;1.23;;;;;;;-141.50;100.00;63355.56;5117027;27;20052;-78
2024/02/06 08:15:14;;;;;;;5.53;1.40;;;;;;;-141.50;100.00;63355.56;5106162;28;20059;-78
2024/02/06 08:17:42;;;;;;;6.68;1.30;;;;;;;-141.50;100.00;63355.56;5091172;28;20124;-78
2024/02/06 08:20:10;;;;;;;4.65;1.67;;;;;;;-141.50;100.00;63355.56;5107202;28;20136;-79
2024/02/06 08:22:41;;;;;;;3.85;1.35;;;;;;;-141.50;100.00;63355.56;5113030;28;20444;-79
2024/02/06 08:25:09;;;;;;;2.33;1.30;;;;;;;-141.50;100.00;63355.56;5110884;28;20055;-76
2024/02/06 08:27:36;;;;;;;2.83;1.25;;;;;;;-141.50;100.00;63355.56;5110687;28;20087;-80
2024/02/06 08:30:09;;;;;;;5.75;1.30;;;;;;;-141.50;100.00;63355.56;5109027;27;20064;-80
2024/02/06 08:32:36;;;;;;;6.72;1.67;;;;;;;-141.50;100.00;63355.56;5068456;28;20040;-80
2024/02/06 08:35:03;;;;;;;1.90;1.15;;;;;;;-141.50;100.00;63355.56;5111308;28;20063;-79
2024/02/06 08:37:31;;;;;;;5.45;1.40;;;;;;;-141.50;100.00;63355.56;5111074;27;20063;-78
2024/02/06 08:40:06;;;;;;;6.90;1.30;;;;;;;-141.50;100.00;63355.56;5110975;27;20051;-79
2024/02/06 08:42:37;;;;;;;4.45;1.38;;;;;;;-141.50;100.00;63355.56;5108008;28;20131;-80
2024/02/06 08:45:04;;;;;;;8.07;1.92;;;;;;;-141.50;100.00;63355.56;5099425;27;20066;-80
2024/02/06 08:47:32;;;;;;;4.95;1.50;;;;;;;-141.50;100.00;63355.56;5086068;28;20126;-79
2024/02/06 08:49:59;;;;;;;3.83;1.50;;;;;;;-141.50;100.00;63355.56;5114317;27;20051;-78
2024/02/06 08:52:26;;;;;;;8.40;1.77;;;;;;;-141.50;100.00;63355.56;5114998;28;20057;-77
2024/02/06 08:54:53;;;;;;;5.85;2.47;;;;;;;-141.50;100.00;63355.56;5096021;28;20060;-80
2024/02/06 08:57:19;;;;;;;3.85;1.63;;;;;;;-141.50;100.00;63355.56;5098315;28;20085;-79
2024/02/06 08:59:46;;;;;;;7.75;1.38;;;;;;;-141.50;100.00;63355.56;5109806;28;20732;-78
2024/02/06 09:02:13;;;;;;;7.35;1.30;;;;;;;-141.50;100.00;63355.56;5097226;28;20061;-78
2024/02/06 09:04:42;;;;;;;4.50;1.42;;;;;;;-141.50;100.00;63355.56;5113382;27;20052;-80
2024/02/06 09:07:08;;;;;;;3.28;1.33;;;;;;;-141.50;100.00;63355.56;5091986;28;20135;-81
2024/02/06 09:09:37;;;;;;;8.10;1.75;;;;;;;-141.50;100.00;63355.56;5102323;28;20143;-81
2024/02/06 09:12:05;;;;;;;4.38;1.48;;;;;;;-141.50;100.00;63355.56;5106236;28;20067;-80
2024/02/06 09:14:32;;;;;;;6.63;1.42;;;;;;;-141.50;100.00;63355.56;5092424;28;20048;-79
2024/02/06 09:17:04;;;;;;;4.55;1.45;;;;;;;-141.50;100.00;63355.56;5094494;28;20642;-78
2024/02/06 09:19:31;;;;;;;7.22;2.03;;;;;;;-141.50;100.00;63355.56;5092360;28;20055;-80
2024/02/06 09:21:57;;;;;;;4.45;1.67;;;;;;;-141.50;100.00;63355.56;5095216;28;20063;-80
2024/02/06 09:24:24;;;;;;;4.18;1.58;;;;;;;-141.50;100.00;63355.56;5095696;28;20165;-80
2024/02/06 09:26:54;;;;;;;5.30;1.70;;;;;;;-141.50;100.00;63355.56;5091825;28;20063;-79
2024/02/06 09:29:22;;;;;;;6.88;1.85;;;;;;;-141.50;100.00;63355.56;5113582;28;20063;-80
2024/02/06 09:31:49;;;;;;;3.92;1.85;;;;;;;-141.50;100.00;63355.56;5118028;28;20063;-77
2024/02/06 09:34:19;;;;;;;4.25;1.67;;;;;;;-141.50;100.00;63355.56;5083173;28;20051;-78
2024/02/06 09:36:46;;;;;;;6.53;1.98;;;;;;;-141.50;100.00;63355.56;5098521;28;20061;-77
2024/02/06 09:39:13;;;;;;;6.88;1.60;;;;;;;-141.50;100.00;63355.56;5093137;28;20059;-78
2024/02/06 09:41:40;;;;;;;4.45;2.00;;;;;;;-141.50;100.00;63355.56;5096886;28;20086;-81
2024/02/06 09:44:07;;;;;;;4.30;1.52;;;;;;;-141.50;100.00;63355.56;5116500;28;20115;-78
2024/02/06 09:46:35;;;;;;;4.05;1.83;;;;;;;-141.50;100.00;63355.56;5117523;28;20063;-81
2024/02/06 09:49:01;;;;;;;4.30;1.80;;;;;;;-141.50;100.00;63355.56;5077954;28;20060;-80
2024/02/06 09:51:32;;;;;;;4.15;1.98;;;;;;;-141.50;100.00;63355.56;5085058;28;20104;-77
2024/02/06 09:53:59;;;;;;;6.00;1.90;;;;;;;-141.50;100.00;63355.56;5104125;28;20113;-78
2024/02/06 09:56:28;;;;;;;7.53;1.80;;;;;;;-141.50;100.00;63355.56;5081873;28;20134;-80
2024/02/06 09:58:57;;;;;;;9.10;2.00;;;;;;;-141.50;100.00;63355.56;5093141;28;20135;-81
2024/02/06 10:01:25;;;;;;;9.10;1.48;;;;;;;-141.50;100.00;63355.56;5090323;28;20067;-81
2024/02/06 10:03:54;;;;;;;3.33;1.77;;;;;;;-141.50;100.00;63355.56;5110046;28;20073;-80
2024/02/06 10:06:27;;;;;;;4.43;1.73;;;;;;;-141.50;100.00;63355.56;5113124;28;20048;-76
2024/02/06 10:08:55;;;;;;;3.03;1.33;;;;;;;-141.50;100.00;63355.56;5078954;28;20093;-78
2024/02/06 10:11:22;;;;;;;5.45;1.45;;;;;;;-141.50;100.00;63355.56;5094730;28;20059;-80
2024/02/06 10:13:49;;;;;;;8.65;1.77;;;;;;;-141.50;100.00;63355.56;5111692;28;20053;-77
2024/02/06 10:16:16;;;;;;;4.25;1.70;;;;;;;-141.50;100.00;63355.56;5110231;28;20054;-80
2024/02/06 10:18:56;;;;;;;3.97;1.52;;;;;;;-141.50;100.00;63355.56;5104535;28;20707;-78
2024/02/06 10:21:23;;;;;;;6.00;1.70;;;;;;;-141.50;100.00;63355.56;5098286;28;20112;-78
2024/02/06 10:24:04;;;;;;;6.38;1.85;;;;;;;-141.50;100.00;63355.56;5097837;28;20572;-77
2024/02/06 10:26:32;;;;;;;7.70;2.08;;;;;;;-141.50;100.00;63355.56;5084775;28;20048;-78
2024/02/06 10:29:07;;;;;;;5.03;1.40;;;;;;;-141.50;100.00;63355.56;5101611;28;20127;-78
2024/02/06 10:31:34;;;;;;;3.67;1.83;;;;;;;-141.50;100.00;63355.56;5084998;28;20418;-79
2024/02/06 10:34:11;;;;;;;4.47;1.55;;;;;;;-141.50;100.00;63355.56;5101129;28;20052;-78
2024/02/06 10:36:39;;;;;;;5.88;1.83;;;;;;;-141.50;100.00;63355.56;5077167;28;20052;-78
2024/02/06 10:39:09;;;;;;;3.55;1.40;;;;;;;-141.50;100.00;63355.56;5100538;28;20056;-80
2024/02/06 10:41:36;;;;;;;6.32;1.50;;;;;;;-141.50;100.00;63355.56;5109431;28;20055;-79
2024/02/06 10:44:23;;;;;;;9.48;1.55;;;;;;;-141.50;100.00;63355.56;5102919;28;20565;-79
2024/02/06 10:47:03;;;;;;;4.70;1.65;;;;;;;-141.50;100.00;63355.56;5090387;28;20070;-76
2024/02/06 10:49:30;;;;;;;3.28;1.27;;;;;;;-141.50;100.00;63355.56;5087792;28;20275;-77
2024/02/06 10:52:01;;;;;;;3.22;1.50;;;;;;;-141.50;100.00;63355.56;5111336;28;20121;-78
2024/02/06 10:54:28;;;;;;;3.60;1.65;;;;;;;-141.50;100.00;63355.56;5112422;28;20039;-79
2024/02/06 10:57:08;;;;;;;3.03;1.50;;;;;;;-141.50;100.00;63355.56;5093564;28;20116;-78
2024/02/06 11:00:08;;;;;;;5.35;1.77;;;;;;;-141.50;100.00;63355.56;5088524;28;20073;-80
2024/02/06 11:02:39;;;;;;;3.72;1.30;;;;;;;-141.50;100.00;63355.56;5072611;28;20101;-79
2024/02/06 11:05:26;;;;;;;3.78;1.33;;;;;;;-141.50;100.00;63355.56;5100951;28;20052;-79
2024/02/06 11:08:07;;;;;;;5.28;1.60;;;;;;;-141.50;100.00;63355.56;5098935;28;20063;-79